sensor_id;sensor_type;location;lat;lon;timestamp;P1;durP1;ratioP1;P2;durP2;ratioP2
81320;SDS011;70785;52.570;5.638;2024-02-21T00:01:03;29.00;;;12.57;;
81320;SDS011;70785;52.570;5.638;2024-02-21T00:03:31;31.25;;;11.70;;
81320;SDS011;70785;52.570;5.638;2024-02-21T00:05:57;27.90;;;11.50;;
81320;SDS011;70785;52.570;5.638;2024-02-21T00:08:23;23.38;;;11.45;;
81320;SDS011;70785;52.570;5.638;2024-02-21T00:10:49;20.45;;;9.32;;
81320;SDS011;70785;52.570;5.638;2024-02-21T00:13:15;18.52;;;9.15;;
81320;SDS011;70785;52.570;5.638;2024-02-21T00:15:41;24.98;;;11.20;;
81320;SDS011;70785;52.570;5.638;2024-02-21T00:18:07;17.95;;;9.45;;
81320;SDS011;70785;52.570;5.638;2024-02-21T00:20:33;15.35;;;7.88;;
81320;SDS011;70785;52.570;5.638;2024-02-21T00:22:59;18.58;;;7.72;;
81320;SDS011;70785;52.570;5.638;2024-02-21T00:25:25;18.92;;;6.97;;
81320;SDS011;70785;52.570;5.638;2024-02-21T00:27:51;15.40;;;6.90;;
81320;SDS011;70785;52.570;5.638;2024-02-21T00:30:19;12.65;;;6.68;;
81320;SDS011;70785;52.570;5.638;2024-02-21T00:32:45;19.20;;;6.85;;
81320;SDS011;70785;52.570;5.638;2024-02-21T00:35:11;18.00;;;8.15;;
81320;SDS011;70785;52.570;5.638;2024-02-21T00:37:38;15.10;;;7.80;;
81320;SDS011;70785;52.570;5.638;2024-02-21T00:40:04;16.95;;;7.25;;
81320;SDS011;70785;52.570;5.638;2024-02-21T00:42:30;19.83;;;6.90;;
81320;SDS011;70785;52.570;5.638;2024-02-21T00:44:57;19.92;;;8.57;;
81320;SDS011;70785;52.570;5.638;2024-02-21T00:47:23;21.30;;;7.70;;
81320;SDS011;70785;52.570;5.638;2024-02-21T00:49:49;13.88;;;6.25;;
81320;SDS011;70785;52.570;5.638;2024-02-21T00:52:15;22.77;;;10.50;;
81320;SDS011;70785;52.570;5.638;2024-02-21T00:54:41;26.10;;;9.82;;
81320;SDS011;70785;52.570;5.638;2024-02-21T00:57:07;14.77;;;7.65;;
81320;SDS011;70785;52.570;5.638;2024-02-21T00:59:34;19.52;;;9.02;;
81320;SDS011;70785;52.570;5.638;2024-02-21T01:02:00;20.38;;;8.68;;
81320;SDS011;70785;52.570;5.638;2024-02-21T01:04:26;19.70;;;9.27;;
81320;SDS011;70785;52.570;5.638;2024-02-21T01:06:52;20.30;;;8.40;;
81320;SDS011;70785;52.570;5.638;2024-02-21T01:09:18;20.35;;;9.93;;
81320;SDS011;70785;52.570;5.638;2024-02-21T01:11:44;18.15;;;9.70;;
81320;SDS011;70785;52.570;5.638;2024-02-21T01:14:10;26.23;;;9.65;;
81320;SDS011;70785;52.570;5.638;2024-02-21T01:16:37;17.15;;;8.65;;
81320;SDS011;70785;52.570;5.638;2024-02-21T01:19:03;21.55;;;8.80;;
81320;SDS011;70785;52.570;5.638;2024-02-21T01:21:29;21.63;;;9.18;;
81320;SDS011;70785;52.570;5.638;2024-02-21T01:23:55;17.65;;;6.65;;
81320;SDS011;70785;52.570;5.638;2024-02-21T01:26:21;14.95;;;6.38;;
81320;SDS011;70785;52.570;5.638;2024-02-21T01:28:47;14.25;;;6.07;;
81320;SDS011;70785;52.570;5.638;2024-02-21T01:31:13;13.88;;;5.10;;
81320;SDS011;70785;52.570;5.638;2024-02-21T01:33:40;16.60;;;6.20;;
81320;SDS011;70785;52.570;5.638;2024-02-21T01:36:06;12.80;;;5.18;;
81320;SDS011;70785;52.570;5.638;2024-02-21T01:38:32;12.32;;;4.97;;
81320;SDS011;70785;52.570;5.638;2024-02-21T01:40:59;17.75;;;5.93;;
81320;SDS011;70785;52.570;5.638;2024-02-21T01:43:25;12.45;;;5.05;;
81320;SDS011;70785;52.570;5.638;2024-02-21T01:45:53;9.43;;;3.15;;
81320;SDS011;70785;52.570;5.638;2024-02-21T01:48:23;10.57;;;4.30;;
81320;SDS011;70785;52.570;5.638;2024-02-21T01:50:50;10.57;;;4.20;;
81320;SDS011;70785;52.570;5.638;2024-02-21T01:53:27;15.63;;;4.78;;
81320;SDS011;70785;52.570;5.638;2024-02-21T01:55:57;10.80;;;4.47;;
81320;SDS011;70785;52.570;5.638;2024-02-21T01:58:23;19.15;;;5.97;;
81320;SDS011;70785;52.570;5.638;2024-02-21T02:00:50;18.10;;;5.70;;
81320;SDS011;70785;52.570;5.638;2024-02-21T02:03:16;14.60;;;5.78;;
81320;SDS011;70785;52.570;5.638;2024-02-21T02:05:46;16.17;;;5.70;;
81320;SDS011;70785;52.570;5.638;2024-02-21T02:08:16;12.70;;;5.53;;
81320;SDS011;70785;52.570;5.638;2024-02-21T02:10:45;17.02;;;5.75;;
81320;SDS011;70785;52.570;5.638;2024-02-21T02:13:11;13.57;;;5.20;;
81320;SDS011;70785;52.570;5.638;2024-02-21T02:15:41;16.90;;;4.72;;
81320;SDS011;70785;52.570;5.638;2024-02-21T02:18:08;14.18;;;4.80;;
81320;SDS011;70785;52.570;5.638;2024-02-21T02:20:35;15.85;;;5.38;;
81320;SDS011;70785;52.570;5.638;2024-02-21T02:23:04;18.55;;;4.80;;
81320;SDS011;70785;52.570;5.638;2024-02-21T02:25:49;9.05;;;3.53;;
81320;SDS011;70785;52.570;5.638;2024-02-21T02:28:17;8.93;;;3.85;;
81320;SDS011;70785;52.570;5.638;2024-02-21T02:30:44;12.38;;;3.70;;
81320;SDS011;70785;52.570;5.638;2024-02-21T02:33:11;13.70;;;3.08;;
81320;SDS011;70785;52.570;5.638;2024-02-21T02:35:37;13.50;;;3.33;;
81320;SDS011;70785;52.570;5.638;2024-02-21T02:38:03;10.65;;;2.47;;
81320;SDS011;70785;52.570;5.638;2024-02-21T02:40:30;7.18;;;2.42;;
81320;SDS011;70785;52.570;5.638;2024-02-21T02:42:57;9.73;;;2.83;;
81320;SDS011;70785;52.570;5.638;2024-02-21T02:45:23;10.52;;;1.83;;
81320;SDS011;70785;52.570;5.638;2024-02-21T02:47:52;9.85;;;1.40;;
81320;SDS011;70785;52.570;5.638;2024-02-21T02:50:20;7.00;;;1.33;;
81320;SDS011;70785;52.570;5.638;2024-02-21T02:52:46;6.93;;;1.38;;
81320;SDS011;70785;52.570;5.638;2024-02-21T02:55:12;13.65;;;2.30;;
81320;SDS011;70785;52.570;5.638;2024-02-21T02:57:38;12.73;;;2.65;;
81320;SDS011;70785;52.570;5.638;2024-02-21T03:00:05;9.88;;;1.65;;
81320;SDS011;70785;52.570;5.638;2024-02-21T03:02:32;10.20;;;2.55;;
81320;SDS011;70785;52.570;5.638;2024-02-21T03:04:58;14.02;;;2.22;;
81320;SDS011;70785;52.570;5.638;2024-02-21T03:07:25;13.02;;;2.67;;
81320;SDS011;70785;52.570;5.638;2024-02-21T03:09:51;14.65;;;2.05;;
81320;SDS011;70785;52.570;5.638;2024-02-21T03:12:18;8.32;;;2.00;;
81320;SDS011;70785;52.570;5.638;2024-02-21T03:14:50;4.75;;;1.55;;
81320;SDS011;70785;52.570;5.638;2024-02-21T03:17:16;16.40;;;4.18;;
81320;SDS011;70785;52.570;5.638;2024-02-21T03:19:42;18.25;;;2.22;;
81320;SDS011;70785;52.570;5.638;2024-02-21T03:22:08;10.68;;;1.90;;
81320;SDS011;70785;52.570;5.638;2024-02-21T03:24:34;15.25;;;2.38;;
81320;SDS011;70785;52.570;5.638;2024-02-21T03:27:01;16.80;;;2.55;;
81320;SDS011;70785;52.570;5.638;2024-02-21T03:29:27;13.73;;;2.08;;
81320;SDS011;70785;52.570;5.638;2024-02-21T03:31:53;11.50;;;1.80;;
81320;SDS011;70785;52.570;5.638;2024-02-21T03:34:20;11.80;;;1.85;;
81320;SDS011;70785;52.570;5.638;2024-02-21T03:36:46;18.40;;;2.40;;
81320;SDS011;70785;52.570;5.638;2024-02-21T03:39:12;10.55;;;1.85;;
81320;SDS011;70785;52.570;5.638;2024-02-21T03:41:39;13.35;;;2.38;;
81320;SDS011;70785;52.570;5.638;2024-02-21T03:44:05;11.40;;;1.65;;
81320;SDS011;70785;52.570;5.638;2024-02-21T03:46:31;9.98;;;2.00;;
81320;SDS011;70785;52.570;5.638;2024-02-21T03:48:57;9.98;;;2.20;;
81320;SDS011;70785;52.570;5.638;2024-02-21T03:51:23;11.80;;;1.92;;
81320;SDS011;70785;52.570;5.638;2024-02-21T03:53:49;9.23;;;2.08;;
81320;SDS011;70785;52.570;5.638;2024-02-21T03:56:15;11.90;;;1.95;;
81320;SDS011;70785;52.570;5.638;2024-02-21T03:58:42;12.10;;;2.05;;
81320;SDS011;70785;52.570;5.638;2024-02-21T04:01:08;11.30;;;1.77;;
81320;SDS011;70785;52.570;5.638;2024-02-21T04:03:34;10.07;;;1.67;;
81320;SDS011;70785;52.570;5.638;2024-02-21T04:06:01;12.05;;;3.17;;
81320;SDS011;70785;52.570;5.638;2024-02-21T04:08:27;14.25;;;1.98;;
81320;SDS011;70785;52.570;5.638;2024-02-21T04:10:53;10.65;;;2.08;;
81320;SDS011;70785;52.570;5.638;2024-02-21T04:13:19;11.85;;;1.90;;
81320;SDS011;70785;52.570;5.638;2024-02-21T04:15:45;15.63;;;2.25;;
81320;SDS011;70785;52.570;5.638;2024-02-21T04:18:11;8.95;;;1.55;;
81320;SDS011;70785;52.570;5.638;2024-02-21T04:20:38;10.95;;;2.30;;
81320;SDS011;70785;52.570;5.638;2024-02-21T04:23:04;14.35;;;2.30;;
81320;SDS011;70785;52.570;5.638;2024-02-21T04:25:30;11.23;;;1.80;;
81320;SDS011;70785;52.570;5.638;2024-02-21T04:27:56;11.95;;;3.00;;
81320;SDS011;70785;52.570;5.638;2024-02-21T04:30:22;12.75;;;2.83;;
81320;SDS011;70785;52.570;5.638;2024-02-21T04:32:48;13.00;;;4.13;;
81320;SDS011;70785;52.570;5.638;2024-02-21T04:35:15;14.48;;;3.47;;
81320;SDS011;70785;52.570;5.638;2024-02-21T04:37:42;13.25;;;3.85;;
81320;SDS011;70785;52.570;5.638;2024-02-21T04:40:08;15.30;;;3.78;;
81320;SDS011;70785;52.570;5.638;2024-02-21T04:42:35;13.27;;;4.13;;
81320;SDS011;70785;52.570;5.638;2024-02-21T04:45:02;19.08;;;6.22;;
81320;SDS011;70785;52.570;5.638;2024-02-21T04:47:28;12.48;;;3.78;;
81320;SDS011;70785;52.570;5.638;2024-02-21T04:49:54;14.65;;;3.80;;
81320;SDS011;70785;52.570;5.638;2024-02-21T04:52:21;14.98;;;3.47;;
81320;SDS011;70785;52.570;5.638;2024-02-21T04:54:47;7.80;;;3.38;;
81320;SDS011;70785;52.570;5.638;2024-02-21T04:57:14;12.90;;;3.60;;
81320;SDS011;70785;52.570;5.638;2024-02-21T04:59:43;11.35;;;2.42;;
81320;SDS011;70785;52.570;5.638;2024-02-21T05:02:10;17.67;;;3.03;;
81320;SDS011;70785;52.570;5.638;2024-02-21T05:04:37;19.30;;;3.33;;
81320;SDS011;70785;52.570;5.638;2024-02-21T05:07:04;13.93;;;2.95;;
81320;SDS011;70785;52.570;5.638;2024-02-21T05:09:30;9.60;;;2.15;;
81320;SDS011;70785;52.570;5.638;2024-02-21T05:11:57;9.02;;;2.78;;
81320;SDS011;70785;52.570;5.638;2024-02-21T05:14:25;13.10;;;2.95;;
81320;SDS011;70785;52.570;5.638;2024-02-21T05:16:52;9.88;;;2.65;;
81320;SDS011;70785;52.570;5.638;2024-02-21T05:19:20;12.25;;;2.90;;
81320;SDS011;70785;52.570;5.638;2024-02-21T05:21:49;8.00;;;2.33;;
81320;SDS011;70785;52.570;5.638;2024-02-21T05:24:15;13.52;;;2.47;;
81320;SDS011;70785;52.570;5.638;2024-02-21T05:26:42;9.93;;;2.70;;
81320;SDS011;70785;52.570;5.638;2024-02-21T05:29:08;7.55;;;1.95;;
81320;SDS011;70785;52.570;5.638;2024-02-21T05:34:18;7.85;;;2.15;;
81320;SDS011;70785;52.570;5.638;2024-02-21T05:36:45;11.00;;;2.42;;
81320;SDS011;70785;52.570;5.638;2024-02-21T05:39:13;15.73;;;2.78;;
81320;SDS011;70785;52.570;5.638;2024-02-21T05:41:40;8.82;;;2.85;;
81320;SDS011;70785;52.570;5.638;2024-02-21T05:44:06;10.50;;;3.20;;
81320;SDS011;70785;52.570;5.638;2024-02-21T05:46:32;13.40;;;3.58;;
81320;SDS011;70785;52.570;5.638;2024-02-21T05:48:59;12.95;;;3.50;;
81320;SDS011;70785;52.570;5.638;2024-02-21T05:51:26;10.80;;;2.53;;
81320;SDS011;70785;52.570;5.638;2024-02-21T05:53:52;12.38;;;2.85;;
81320;SDS011;70785;52.570;5.638;2024-02-21T05:56:18;12.40;;;2.58;;
81320;SDS011;70785;52.570;5.638;2024-02-21T05:58:44;8.75;;;3.58;;
81320;SDS011;70785;52.570;5.638;2024-02-21T06:01:11;14.52;;;3.38;;
81320;SDS011;70785;52.570;5.638;2024-02-21T06:03:37;13.63;;;3.25;;
81320;SDS011;70785;52.570;5.638;2024-02-21T06:06:04;13.63;;;3.50;;
81320;SDS011;70785;52.570;5.638;2024-02-21T06:08:31;9.50;;;3.53;;
81320;SDS011;70785;52.570;5.638;2024-02-21T06:10:57;18.25;;;4.75;;
81320;SDS011;70785;52.570;5.638;2024-02-21T06:13:23;14.38;;;4.22;;
81320;SDS011;70785;52.570;5.638;2024-02-21T06:15:50;11.10;;;4.95;;
81320;SDS011;70785;52.570;5.638;2024-02-21T06:18:19;13.00;;;5.25;;
81320;SDS011;70785;52.570;5.638;2024-02-21T06:20:46;15.77;;;5.72;;
81320;SDS011;70785;52.570;5.638;2024-02-21T06:23:12;16.17;;;5.22;;
81320;SDS011;70785;52.570;5.638;2024-02-21T06:25:41;16.73;;;7.10;;
81320;SDS011;70785;52.570;5.638;2024-02-21T06:28:07;15.38;;;6.35;;
81320;SDS011;70785;52.570;5.638;2024-02-21T06:30:33;18.63;;;5.75;;
81320;SDS011;70785;52.570;5.638;2024-02-21T06:32:59;10.70;;;5.78;;
81320;SDS011;70785;52.570;5.638;2024-02-21T06:35:26;18.55;;;6.85;;
81320;SDS011;70785;52.570;5.638;2024-02-21T06:37:52;13.55;;;6.97;;
81320;SDS011;70785;52.570;5.638;2024-02-21T06:40:20;13.77;;;6.95;;
81320;SDS011;70785;52.570;5.638;2024-02-21T06:42:48;14.73;;;7.18;;
81320;SDS011;70785;52.570;5.638;2024-02-21T06:45:14;16.58;;;6.80;;
81320;SDS011;70785;52.570;5.638;2024-02-21T06:47:41;15.45;;;6.80;;
81320;SDS011;70785;52.570;5.638;2024-02-21T06:50:07;16.35;;;6.85;;
81320;SDS011;70785;52.570;5.638;2024-02-21T06:52:34;14.07;;;6.20;;
81320;SDS011;70785;52.570;5.638;2024-02-21T06:55:03;18.95;;;7.53;;
81320;SDS011;70785;52.570;5.638;2024-02-21T06:57:30;19.95;;;8.77;;
81320;SDS011;70785;52.570;5.638;2024-02-21T06:59:56;13.68;;;6.28;;
81320;SDS011;70785;52.570;5.638;2024-02-21T07:02:22;15.90;;;7.10;;
81320;SDS011;70785;52.570;5.638;2024-02-21T07:04:48;14.20;;;7.35;;
81320;SDS011;70785;52.570;5.638;2024-02-21T07:07:15;17.73;;;7.43;;
81320;SDS011;70785;52.570;5.638;2024-02-21T07:09:41;15.85;;;7.63;;
81320;SDS011;70785;52.570;5.638;2024-02-21T07:12:07;16.00;;;7.28;;
81320;SDS011;70785;52.570;5.638;2024-02-21T07:14:33;17.45;;;8.07;;
81320;SDS011;70785;52.570;5.638;2024-02-21T07:17:01;19.92;;;7.82;;
81320;SDS011;70785;52.570;5.638;2024-02-21T07:19:27;16.75;;;7.28;;
81320;SDS011;70785;52.570;5.638;2024-02-21T07:21:53;18.05;;;7.53;;
81320;SDS011;70785;52.570;5.638;2024-02-21T07:24:19;15.48;;;7.40;;
81320;SDS011;70785;52.570;5.638;2024-02-21T07:26:45;15.48;;;8.13;;
81320;SDS011;70785;52.570;5.638;2024-02-21T07:29:11;16.05;;;7.13;;
81320;SDS011;70785;52.570;5.638;2024-02-21T07:31:38;17.75;;;8.20;;
81320;SDS011;70785;52.570;5.638;2024-02-21T07:34:08;20.58;;;8.75;;
81320;SDS011;70785;52.570;5.638;2024-02-21T07:36:35;17.77;;;7.80;;
81320;SDS011;70785;52.570;5.638;2024-02-21T07:39:01;16.25;;;7.35;;
81320;SDS011;70785;52.570;5.638;2024-02-21T07:41:27;19.33;;;8.25;;
81320;SDS011;70785;52.570;5.638;2024-02-21T07:43:55;16.27;;;8.23;;
81320;SDS011;70785;52.570;5.638;2024-02-21T07:46:22;17.63;;;8.27;;
81320;SDS011;70785;52.570;5.638;2024-02-21T07:48:48;16.17;;;6.82;;
81320;SDS011;70785;52.570;5.638;2024-02-21T07:51:14;15.25;;;6.90;;
81320;SDS011;70785;52.570;5.638;2024-02-21T07:53:43;21.13;;;7.85;;
81320;SDS011;70785;52.570;5.638;2024-02-21T07:56:13;15.27;;;6.88;;
81320;SDS011;70785;52.570;5.638;2024-02-21T07:58:40;14.43;;;7.70;;
81320;SDS011;70785;52.570;5.638;2024-02-21T08:01:07;15.23;;;7.63;;
81320;SDS011;70785;52.570;5.638;2024-02-21T08:03:34;18.23;;;8.75;;
81320;SDS011;70785;52.570;5.638;2024-02-21T08:06:01;18.42;;;7.55;;
81320;SDS011;70785;52.570;5.638;2024-02-21T08:08:28;15.30;;;7.65;;
81320;SDS011;70785;52.570;5.638;2024-02-21T08:10:54;15.25;;;7.15;;
81320;SDS011;70785;52.570;5.638;2024-02-21T08:13:20;17.17;;;8.57;;
81320;SDS011;70785;52.570;5.638;2024-02-21T08:15:46;18.45;;;8.65;;
81320;SDS011;70785;52.570;5.638;2024-02-21T08:18:12;16.35;;;8.40;;
81320;SDS011;70785;52.570;5.638;2024-02-21T08:20:38;14.40;;;7.80;;
81320;SDS011;70785;52.570;5.638;2024-02-21T08:23:04;18.13;;;7.90;;
81320;SDS011;70785;52.570;5.638;2024-02-21T08:25:30;17.83;;;8.48;;
81320;SDS011;70785;52.570;5.638;2024-02-21T08:28:00;16.60;;;8.25;;
81320;SDS011;70785;52.570;5.638;2024-02-21T08:30:26;16.15;;;8.60;;
81320;SDS011;70785;52.570;5.638;2024-02-21T08:32:52;17.55;;;8.77;;
81320;SDS011;70785;52.570;5.638;2024-02-21T08:35:19;13.13;;;6.30;;
81320;SDS011;70785;52.570;5.638;2024-02-21T08:37:47;18.38;;;9.07;;
81320;SDS011;70785;52.570;5.638;2024-02-21T08:40:14;14.43;;;7.72;;
81320;SDS011;70785;52.570;5.638;2024-02-21T08:42:43;17.25;;;8.25;;
81320;SDS011;70785;52.570;5.638;2024-02-21T08:45:09;15.27;;;8.00;;
81320;SDS011;70785;52.570;5.638;2024-02-21T08:47:36;18.02;;;8.45;;
81320;SDS011;70785;52.570;5.638;2024-02-21T08:50:04;15.98;;;8.07;;
81320;SDS011;70785;52.570;5.638;2024-02-21T08:52:31;14.60;;;7.90;;
81320;SDS011;70785;52.570;5.638;2024-02-21T08:54:57;14.88;;;8.23;;
81320;SDS011;70785;52.570;5.638;2024-02-21T08:57:23;19.25;;;8.52;;
81320;SDS011;70785;52.570;5.638;2024-02-21T08:59:50;16.33;;;9.13;;
81320;SDS011;70785;52.570;5.638;2024-02-21T09:02:17;17.80;;;8.32;;
81320;SDS011;70785;52.570;5.638;2024-02-21T09:04:43;18.98;;;9.52;;
81320;SDS011;70785;52.570;5.638;2024-02-21T09:07:12;15.10;;;8.02;;
81320;SDS011;70785;52.570;5.638;2024-02-21T09:09:38;17.13;;;8.30;;
81320;SDS011;70785;52.570;5.638;2024-02-21T09:12:06;18.85;;;9.95;;
81320;SDS011;70785;52.570;5.638;2024-02-21T09:14:33;17.17;;;9.45;;
81320;SDS011;70785;52.570;5.638;2024-02-21T09:16:59;19.80;;;9.00;;
81320;SDS011;70785;52.570;5.638;2024-02-21T09:19:25;20.92;;;9.40;;
81320;SDS011;70785;52.570;5.638;2024-02-21T09:21:51;22.08;;;11.32;;
81320;SDS011;70785;52.570;5.638;2024-02-21T09:24:17;19.30;;;10.25;;
81320;SDS011;70785;52.570;5.638;2024-02-21T09:26:43;18.67;;;8.95;;
81320;SDS011;70785;52.570;5.638;2024-02-21T09:29:10;19.05;;;9.43;;
81320;SDS011;70785;52.570;5.638;2024-02-21T09:31:36;14.27;;;8.95;;
81320;SDS011;70785;52.570;5.638;2024-02-21T09:34:04;18.38;;;9.68;;
81320;SDS011;70785;52.570;5.638;2024-02-21T09:36:30;18.05;;;9.00;;
81320;SDS011;70785;52.570;5.638;2024-02-21T09:38:56;17.25;;;9.55;;
81320;SDS011;70785;52.570;5.638;2024-02-21T09:41:25;17.63;;;9.60;;
81320;SDS011;70785;52.570;5.638;2024-02-21T09:43:53;16.30;;;8.85;;
81320;SDS011;70785;52.570;5.638;2024-02-21T09:46:21;16.88;;;8.93;;
81320;SDS011;70785;52.570;5.638;2024-02-21T09:49:13;22.08;;;10.15;;
81320;SDS011;70785;52.570;5.638;2024-02-21T09:51:53;17.08;;;8.75;;
81320;SDS011;70785;52.570;5.638;2024-02-21T09:54:21;17.75;;;8.55;;
81320;SDS011;70785;52.570;5.638;2024-02-21T09:56:47;14.52;;;7.63;;
81320;SDS011;70785;52.570;5.638;2024-02-21T09:59:16;14.98;;;8.07;;
81320;SDS011;70785;52.570;5.638;2024-02-21T10:01:43;20.00;;;9.95;;
81320;SDS011;70785;52.570;5.638;2024-02-21T10:04:12;15.25;;;8.10;;
81320;SDS011;70785;52.570;5.638;2024-02-21T10:06:38;15.93;;;8.85;;
81320;SDS011;70785;52.570;5.638;2024-02-21T10:09:05;15.13;;;8.00;;
81320;SDS011;70785;52.570;5.638;2024-02-21T10:11:32;16.55;;;8.45;;
81320;SDS011;70785;52.570;5.638;2024-02-21T10:14:05;18.20;;;8.98;;
81320;SDS011;70785;52.570;5.638;2024-02-21T10:16:34;17.00;;;8.50;;
81320;SDS011;70785;52.570;5.638;2024-02-21T10:19:00;18.17;;;8.82;;
81320;SDS011;70785;52.570;5.638;2024-02-21T10:21:26;16.63;;;9.25;;
81320;SDS011;70785;52.570;5.638;2024-02-21T10:23:52;17.60;;;8.77;;
81320;SDS011;70785;52.570;5.638;2024-02-21T10:26:19;14.82;;;7.50;;
81320;SDS011;70785;52.570;5.638;2024-02-21T10:28:45;20.92;;;8.00;;
81320;SDS011;70785;52.570;5.638;2024-02-21T10:31:26;13.02;;;7.65;;
81320;SDS011;70785;52.570;5.638;2024-02-21T10:34:00;13.15;;;6.53;;
81320;SDS011;70785;52.570;5.638;2024-02-21T10:36:29;13.82;;;7.70;;
81320;SDS011;70785;52.570;5.638;2024-02-21T10:38:55;12.77;;;6.97;;
81320;SDS011;70785;52.570;5.638;2024-02-21T10:41:22;13.40;;;6.72;;
81320;SDS011;70785;52.570;5.638;2024-02-21T10:43:52;15.77;;;7.47;;
81320;SDS011;70785;52.570;5.638;2024-02-21T10:46:20;12.48;;;6.57;;
81320;SDS011;70785;52.570;5.638;2024-02-21T10:48:48;13.70;;;6.32;;
81320;SDS011;70785;52.570;5.638;2024-02-21T10:51:43;11.63;;;5.57;;
81320;SDS011;70785;52.570;5.638;2024-02-21T10:54:13;10.68;;;5.93;;
81320;SDS011;70785;52.570;5.638;2024-02-21T10:56:51;11.27;;;5.45;;
81320;SDS011;70785;52.570;5.638;2024-02-21T10:59:19;13.00;;;6.03;;
81320;SDS011;70785;52.570;5.638;2024-02-21T11:01:45;13.50;;;5.80;;
81320;SDS011;70785;52.570;5.638;2024-02-21T11:04:12;12.43;;;5.82;;
81320;SDS011;70785;52.570;5.638;2024-02-21T11:06:39;10.13;;;4.80;;
81320;SDS011;70785;52.570;5.638;2024-02-21T11:09:07;11.40;;;5.57;;
81320;SDS011;70785;52.570;5.638;2024-02-21T11:11:35;8.65;;;4.65;;
81320;SDS011;70785;52.570;5.638;2024-02-21T11:16:45;9.38;;;4.75;;
81320;SDS011;70785;52.570;5.638;2024-02-21T11:19:21;8.98;;;5.10;;
81320;SDS011;70785;52.570;5.638;2024-02-21T11:21:49;10.07;;;4.85;;
81320;SDS011;70785;52.570;5.638;2024-02-21T11:24:26;9.93;;;4.65;;
81320;SDS011;70785;52.570;5.638;2024-02-21T11:29:25;10.77;;;4.28;;
81320;SDS011;70785;52.570;5.638;2024-02-21T11:31:52;7.60;;;3.90;;
81320;SDS011;70785;52.570;5.638;2024-02-21T11:34:18;8.02;;;4.47;;
81320;SDS011;70785;52.570;5.638;2024-02-21T11:36:48;5.70;;;3.45;;
81320;SDS011;70785;52.570;5.638;2024-02-21T11:41:46;7.82;;;3.83;;
81320;SDS011;70785;52.570;5.638;2024-02-21T11:44:13;6.40;;;3.70;;
81320;SDS011;70785;52.570;5.638;2024-02-21T11:46:39;6.13;;;3.50;;
81320;SDS011;70785;52.570;5.638;2024-02-21T11:49:06;8.45;;;4.53;;
81320;SDS011;70785;52.570;5.638;2024-02-21T11:51:32;7.55;;;3.72;;
81320;SDS011;70785;52.570;5.638;2024-02-21T11:53:59;7.03;;;3.17;;
81320;SDS011;70785;52.570;5.638;2024-02-21T11:56:26;6.43;;;3.75;;
81320;SDS011;70785;52.570;5.638;2024-02-21T11:58:52;7.38;;;3.95;;
81320;SDS011;70785;52.570;5.638;2024-02-21T12:01:18;5.85;;;3.35;;
81320;SDS011;70785;52.570;5.638;2024-02-21T12:03:44;6.15;;;3.45;;
81320;SDS011;70785;52.570;5.638;2024-02-21T12:08:45;6.97;;;3.17;;
81320;SDS011;70785;52.570;5.638;2024-02-21T12:11:21;7.00;;;3.53;;
81320;SDS011;70785;52.570;5.638;2024-02-21T12:14:09;5.97;;;3.38;;
81320;SDS011;70785;52.570;5.638;2024-02-21T12:16:35;5.32;;;3.22;;
81320;SDS011;70785;52.570;5.638;2024-02-21T12:19:04;6.57;;;3.05;;
81320;SDS011;70785;52.570;5.638;2024-02-21T12:21:31;6.07;;;3.38;;
81320;SDS011;70785;52.570;5.638;2024-02-21T12:24:00;8.40;;;3.60;;
81320;SDS011;70785;52.570;5.638;2024-02-21T12:26:36;7.35;;;3.40;;
81320;SDS011;70785;52.570;5.638;2024-02-21T12:29:02;8.02;;;3.92;;
81320;SDS011;70785;52.570;5.638;2024-02-21T12:31:29;7.78;;;4.15;;
81320;SDS011;70785;52.570;5.638;2024-02-21T12:33:55;8.27;;;4.05;;
81320;SDS011;70785;52.570;5.638;2024-02-21T12:36:21;6.85;;;4.07;;
81320;SDS011;70785;52.570;5.638;2024-02-21T12:38:47;8.50;;;4.18;;
81320;SDS011;70785;52.570;5.638;2024-02-21T12:41:14;7.93;;;3.83;;
81320;SDS011;70785;52.570;5.638;2024-02-21T12:43:41;6.43;;;4.00;;
81320;SDS011;70785;52.570;5.638;2024-02-21T12:46:07;8.90;;;5.00;;
81320;SDS011;70785;52.570;5.638;2024-02-21T12:48:33;6.50;;;4.22;;
81320;SDS011;70785;52.570;5.638;2024-02-21T12:50:59;7.70;;;4.15;;
81320;SDS011;70785;52.570;5.638;2024-02-21T12:53:26;5.57;;;3.95;;
81320;SDS011;70785;52.570;5.638;2024-02-21T12:55:52;7.65;;;4.22;;
81320;SDS011;70785;52.570;5.638;2024-02-21T12:58:18;6.28;;;4.22;;
81320;SDS011;70785;52.570;5.638;2024-02-21T13:00:44;6.00;;;3.83;;
81320;SDS011;70785;52.570;5.638;2024-02-21T13:03:10;6.47;;;4.05;;
81320;SDS011;70785;52.570;5.638;2024-02-21T13:05:37;7.93;;;4.32;;
81320;SDS011;70785;52.570;5.638;2024-02-21T13:08:07;6.65;;;4.28;;
81320;SDS011;70785;52.570;5.638;2024-02-21T13:10:34;8.70;;;4.68;;
81320;SDS011;70785;52.570;5.638;2024-02-21T13:13:01;9.13;;;4.93;;
81320;SDS011;70785;52.570;5.638;2024-02-21T13:15:27;6.60;;;4.32;;
81320;SDS011;70785;52.570;5.638;2024-02-21T13:17:55;6.85;;;3.75;;
81320;SDS011;70785;52.570;5.638;2024-02-21T13:20:21;8.65;;;4.70;;
81320;SDS011;70785;52.570;5.638;2024-02-21T13:22:48;6.30;;;4.35;;
81320;SDS011;70785;52.570;5.638;2024-02-21T13:25:14;5.72;;;3.92;;
81320;SDS011;70785;52.570;5.638;2024-02-21T13:27:44;8.98;;;5.07;;
81320;SDS011;70785;52.570;5.638;2024-02-21T13:30:10;7.28;;;4.43;;
81320;SDS011;70785;52.570;5.638;2024-02-21T13:32:37;8.52;;;4.22;;
81320;SDS011;70785;52.570;5.638;2024-02-21T13:35:03;6.72;;;4.50;;
81320;SDS011;70785;52.570;5.638;2024-02-21T13:37:29;10.30;;;4.22;;
81320;SDS011;70785;52.570;5.638;2024-02-21T13:39:56;7.65;;;4.63;;
81320;SDS011;70785;52.570;5.638;2024-02-21T13:42:22;8.20;;;4.63;;
81320;SDS011;70785;52.570;5.638;2024-02-21T13:44:49;7.25;;;4.72;;
81320;SDS011;70785;52.570;5.638;2024-02-21T13:47:15;6.05;;;4.32;;
81320;SDS011;70785;52.570;5.638;2024-02-21T13:49:41;8.35;;;4.53;;
81320;SDS011;70785;52.570;5.638;2024-02-21T13:52:08;7.70;;;4.70;;
81320;SDS011;70785;52.570;5.638;2024-02-21T13:54:35;6.50;;;3.83;;
81320;SDS011;70785;52.570;5.638;2024-02-21T13:57:01;7.10;;;4.07;;
81320;SDS011;70785;52.570;5.638;2024-02-21T13:59:28;10.57;;;4.25;;
81320;SDS011;70785;52.570;5.638;2024-02-21T14:01:54;6.45;;;4.07;;
81320;SDS011;70785;52.570;5.638;2024-02-21T14:04:20;7.47;;;4.45;;
81320;SDS011;70785;52.570;5.638;2024-02-21T14:06:46;9.45;;;4.05;;
81320;SDS011;70785;52.570;5.638;2024-02-21T14:09:12;6.55;;;4.47;;
81320;SDS011;70785;52.570;5.638;2024-02-21T14:11:38;6.90;;;3.58;;
81320;SDS011;70785;52.570;5.638;2024-02-21T14:14:06;10.80;;;4.30;;
81320;SDS011;70785;52.570;5.638;2024-02-21T14:16:33;8.82;;;4.15;;
81320;SDS011;70785;52.570;5.638;2024-02-21T14:18:59;8.43;;;4.47;;
81320;SDS011;70785;52.570;5.638;2024-02-21T14:21:25;9.02;;;4.18;;
81320;SDS011;70785;52.570;5.638;2024-02-21T14:23:52;7.28;;;4.13;;
81320;SDS011;70785;52.570;5.638;2024-02-21T14:26:22;7.45;;;4.15;;
81320;SDS011;70785;52.570;5.638;2024-02-21T14:28:48;9.88;;;4.00;;
81320;SDS011;70785;52.570;5.638;2024-02-21T14:31:14;6.80;;;4.13;;
81320;SDS011;70785;52.570;5.638;2024-02-21T14:33:40;7.93;;;4.22;;
81320;SDS011;70785;52.570;5.638;2024-02-21T14:36:07;8.85;;;4.07;;
81320;SDS011;70785;52.570;5.638;2024-02-21T14:38:33;6.90;;;3.70;;
81320;SDS011;70785;52.570;5.638;2024-02-21T14:41:00;7.80;;;4.40;;
81320;SDS011;70785;52.570;5.638;2024-02-21T14:43:28;4.75;;;3.35;;
81320;SDS011;70785;52.570;5.638;2024-02-21T14:45:54;8.32;;;3.78;;
81320;SDS011;70785;52.570;5.638;2024-02-21T14:48:20;8.90;;;4.53;;
81320;SDS011;70785;52.570;5.638;2024-02-21T14:50:47;7.38;;;4.53;;